Terminal Aerodrome Forecast
Issued by NWS

Home | Current Version | Previous Version | Text Only | Print | Product List | Glossary On
Versions: 1 2 3 4 5 6 7 8 9 10 11 12 13 14 15 16 17 18 19
000
FTUS41 KPBZ 161924 AAA
TAFFKL
TAF AMD
KFKL 161924Z 1619/1718 26005KT 5SM -SN SCT015 OVC025
      TEMPO 1619/1621 2SM -SN BKN015
     FM162200 28007KT 5SM -SN SCT015 OVC040
     FM170300 28010KT P6SM BKN015 OVC025
     FM171500 26004KT P6SM BKN025=

USA.gov is the U.S. government's official web portal to all federal, state and local government web resources and services.